createdAt,value
2023-05-24T00:01:52.877Z,99.90
2023-05-24T00:04:25.497Z,99.90
2023-05-24T00:06:56.566Z,99.90
2023-05-24T00:09:27.481Z,99.90
2023-05-24T00:11:58.775Z,99.90
2023-05-24T00:14:30.300Z,99.90
2023-05-24T00:17:01.500Z,99.90
2023-05-24T00:19:32.500Z,99.90
2023-05-24T00:22:03.489Z,99.90
2023-05-24T00:24:34.431Z,99.90
2023-05-24T00:27:06.079Z,99.90
2023-05-24T00:29:37.025Z,99.90
2023-05-24T00:32:08.078Z,99.90
2023-05-24T00:34:38.988Z,99.90
2023-05-24T00:37:09.956Z,99.90
2023-05-24T00:39:41.434Z,99.90
2023-05-24T00:42:12.376Z,99.90
2023-05-24T00:44:43.407Z,99.90
2023-05-24T00:47:14.633Z,99.90
2023-05-24T00:49:45.858Z,99.90
2023-05-24T00:52:17.543Z,99.90
2023-05-24T00:54:49.085Z,99.90
2023-05-24T00:57:21.791Z,99.90
2023-05-24T00:59:53.146Z,99.90
2023-05-24T01:02:25.434Z,99.90
2023-05-24T01:04:57.519Z,99.90
2023-05-24T01:07:45.196Z,99.90
2023-05-24T01:11:05.042Z,99.90
2023-05-24T01:14:16.339Z,99.90
2023-05-24T01:17:15.038Z,99.90
2023-05-24T01:19:52.253Z,99.90
2023-05-24T01:23:01.134Z,99.90
2023-05-24T01:26:19.042Z,99.90
2023-05-24T01:28:51.373Z,99.90
2023-05-24T01:31:23.126Z,99.90
2023-05-24T01:33:54.140Z,99.90
2023-05-24T01:36:25.037Z,99.90
2023-05-24T01:38:56.268Z,99.90
2023-05-24T01:42:21.041Z,99.90
2023-05-24T01:45:17.983Z,99.90
2023-05-24T01:48:23.514Z,99.90
2023-05-24T01:51:08.004Z,99.90
2023-05-24T01:53:47.608Z,99.90
2023-05-24T01:56:20.842Z,99.90
2023-05-24T01:58:54.291Z,99.90
2023-05-24T02:01:26.856Z,99.90
2023-05-24T02:03:59.474Z,99.90
2023-05-24T02:06:30.556Z,99.90
2023-05-24T02:09:01.533Z,99.90
2023-05-24T02:11:32.476Z,99.90
2023-05-24T02:14:03.399Z,99.90
2023-05-24T02:16:34.380Z,99.90
2023-05-24T02:19:05.484Z,99.90
2023-05-24T02:21:36.558Z,99.90
2023-05-24T02:24:08.028Z,99.90
2023-05-24T02:26:39.357Z,99.90
2023-05-24T02:29:10.616Z,99.90
2023-05-24T02:31:41.644Z,99.90
2023-05-24T02:34:19.251Z,99.90
2023-05-24T02:36:51.627Z,99.90
2023-05-24T02:39:22.716Z,99.90
2023-05-24T02:41:53.681Z,99.90
2023-05-24T02:44:24.684Z,99.90
2023-05-24T02:46:55.712Z,99.90
2023-05-24T02:49:26.711Z,99.90
2023-05-24T02:51:57.630Z,99.90
2023-05-24T02:54:28.526Z,99.90
2023-05-24T02:56:59.447Z,99.90
2023-05-24T02:59:31.227Z,99.90
2023-05-24T03:02:02.266Z,99.90
2023-05-24T03:04:33.259Z,99.90
2023-05-24T03:07:04.376Z,99.90
2023-05-24T03:09:35.568Z,99.90
2023-05-24T03:12:07.010Z,99.90
2023-05-24T03:14:37.874Z,99.90
2023-05-24T03:17:08.804Z,99.90
2023-05-24T03:19:39.696Z,99.90
2023-05-24T03:22:10.708Z,99.90
2023-05-24T03:24:41.660Z,99.90
2023-05-24T03:27:12.575Z,99.90
2023-05-24T03:29:43.500Z,99.90
2023-05-24T03:32:14.496Z,99.90
2023-05-24T03:34:45.478Z,99.90
2023-05-24T03:37:16.480Z,99.90
2023-05-24T03:39:47.396Z,99.90
2023-05-24T03:42:18.378Z,99.90
2023-05-24T03:44:49.375Z,99.90
2023-05-24T03:47:20.393Z,99.90
2023-05-24T03:49:51.639Z,99.90
2023-05-24T03:52:22.705Z,99.90
2023-05-24T03:54:53.673Z,99.90
2023-05-24T03:57:24.737Z,99.90
2023-05-24T03:59:55.848Z,99.90
2023-05-24T04:02:27.188Z,99.90
2023-05-24T04:04:58.177Z,99.90
2023-05-24T04:07:29.120Z,99.90
2023-05-24T04:10:00.561Z,99.90
2023-05-24T04:12:32.315Z,99.90
2023-05-24T04:15:03.760Z,99.90
2023-05-24T04:17:35.317Z,99.90
2023-05-24T04:20:07.262Z,99.90
2023-05-24T04:22:38.417Z,99.90
2023-05-24T04:25:10.080Z,99.90
2023-05-24T04:27:41.349Z,99.90
2023-05-24T04:30:12.661Z,99.90
2023-05-24T04:32:47.473Z,99.90
2023-05-24T04:35:19.488Z,99.90
2023-05-24T04:37:50.544Z,99.90
2023-05-24T04:40:21.587Z,99.90
2023-05-24T04:42:52.512Z,99.90
2023-05-24T04:45:23.501Z,99.90
2023-05-24T04:47:54.493Z,99.90
2023-05-24T04:50:25.790Z,99.90
2023-05-24T04:52:56.717Z,99.90
2023-05-24T04:55:27.645Z,99.90
2023-05-24T04:57:58.666Z,99.90
2023-05-24T05:00:30.223Z,99.90
2023-05-24T05:03:01.373Z,99.90
2023-05-24T05:05:32.399Z,99.90
2023-05-24T05:08:03.998Z,99.90
2023-05-24T05:10:36.242Z,99.90
2023-05-24T05:13:07.255Z,99.90
2023-05-24T05:15:38.319Z,99.90
2023-05-24T05:18:09.332Z,99.90
2023-05-24T05:20:40.565Z,99.90
2023-05-24T05:23:11.643Z,99.90
2023-05-24T05:25:42.630Z,99.90
2023-05-24T05:28:13.562Z,99.90
2023-05-24T05:30:44.706Z,99.90
2023-05-24T05:33:15.834Z,99.90
2023-05-24T05:35:46.832Z,99.90
2023-05-24T05:38:17.796Z,99.90
2023-05-24T05:40:48.741Z,99.90
2023-05-24T05:43:19.795Z,99.90
2023-05-24T05:45:50.910Z,99.90
2023-05-24T05:48:21.989Z,99.90
2023-05-24T05:50:53.195Z,99.90
2023-05-24T05:53:25.187Z,99.90
2023-05-24T05:55:56.646Z,99.90
2023-05-24T05:58:27.581Z,99.90
2023-05-24T06:00:58.553Z,99.90
2023-05-24T06:03:29.749Z,99.90
2023-05-24T06:06:01.083Z,99.90
2023-05-24T06:08:35.197Z,99.90
2023-05-24T06:11:07.911Z,99.90
2023-05-24T06:13:39.944Z,99.90
2023-05-24T06:16:11.258Z,99.90
2023-05-24T06:18:50.201Z,99.90
2023-05-24T06:21:24.561Z,99.90
2023-05-24T06:23:57.701Z,99.90
2023-05-24T06:26:28.681Z,99.90
2023-05-24T06:28:59.617Z,99.90
2023-05-24T06:31:30.596Z,99.90
2023-05-24T06:34:03.889Z,99.90
2023-05-24T06:36:41.458Z,99.90
2023-05-24T06:39:13.650Z,99.90
2023-05-24T06:44:36.435Z,99.90
2023-05-24T06:47:07.694Z,99.90
2023-05-24T06:49:39.326Z,99.90
2023-05-24T06:52:10.708Z,99.90
2023-05-24T06:54:42.164Z,99.90
2023-05-24T06:57:13.138Z,99.90
2023-05-24T06:59:44.087Z,99.90
2023-05-24T07:02:15.092Z,99.90
2023-05-24T07:04:46.226Z,99.90
2023-05-24T07:07:17.243Z,99.90
2023-05-24T07:09:48.250Z,99.90
2023-05-24T07:12:19.260Z,99.90
2023-05-24T07:14:50.198Z,99.90
2023-05-24T07:17:21.228Z,99.90
2023-05-24T07:19:52.536Z,99.90
2023-05-24T07:22:25.364Z,99.90
2023-05-24T07:24:56.376Z,99.90
2023-05-24T07:27:27.559Z,99.90
2023-05-24T07:29:58.871Z,99.90
2023-05-24T07:32:29.993Z,99.90
2023-05-24T07:35:01.057Z,99.90
2023-05-24T07:37:32.005Z,99.90
2023-05-24T07:40:02.946Z,99.90
2023-05-24T07:42:34.000Z,99.90
2023-05-24T07:45:08.837Z,99.90
2023-05-24T07:47:40.003Z,99.90
2023-05-24T07:50:12.160Z,99.90
2023-05-24T07:52:43.169Z,99.90
2023-05-24T07:55:14.581Z,99.90
2023-05-24T07:57:45.603Z,99.90
2023-05-24T08:00:17.534Z,99.90
2023-05-24T08:02:48.749Z,99.90
2023-05-24T08:05:19.883Z,99.90
2023-05-24T08:07:50.878Z,99.90
2023-05-24T08:10:22.056Z,99.90
2023-05-24T08:12:55.143Z,99.90
2023-05-24T08:15:26.292Z,99.90
2023-05-24T08:17:57.320Z,99.90
2023-05-24T08:20:28.409Z,99.90
2023-05-24T08:22:59.473Z,99.90
2023-05-24T08:25:30.779Z,99.90
2023-05-24T08:28:02.065Z,99.90
2023-05-24T08:30:33.344Z,99.90
2023-05-24T08:33:04.491Z,99.90
2023-05-24T08:35:36.165Z,99.90
2023-05-24T08:38:07.670Z,99.90
2023-05-24T08:40:38.813Z,99.90
2023-05-24T08:43:12.207Z,99.90
2023-05-24T08:45:44.655Z,99.90
2023-05-24T08:48:18.211Z,99.90
2023-05-24T08:50:50.154Z,99.90
2023-05-24T08:53:23.643Z,99.90
2023-05-24T08:55:56.234Z,99.90
2023-05-24T08:58:27.344Z,99.90
2023-05-24T09:00:59.995Z,99.90
2023-05-24T09:03:33.164Z,99.90
2023-05-24T09:06:05.032Z,99.90
2023-05-24T09:08:38.542Z,99.90
2023-05-24T09:11:09.680Z,99.90
2023-05-24T09:13:41.071Z,99.90
2023-05-24T09:16:12.281Z,99.90
2023-05-24T09:18:43.313Z,99.90
2023-05-24T09:21:14.234Z,99.90
2023-05-24T09:23:45.584Z,99.90
2023-05-24T09:26:17.440Z,99.90
2023-05-24T09:28:48.581Z,99.90
2023-05-24T09:31:19.620Z,99.90
2023-05-24T09:33:50.572Z,99.90
2023-05-24T09:36:21.965Z,99.90
2023-05-24T09:39:11.580Z,99.90
2023-05-24T09:41:44.480Z,99.90
2023-05-24T09:44:15.812Z,99.90
2023-05-24T09:46:46.880Z,99.90
2023-05-24T09:49:17.857Z,99.90
2023-05-24T09:51:48.923Z,99.90
2023-05-24T09:54:20.973Z,99.90
2023-05-24T09:56:51.948Z,99.90
2023-05-24T09:59:23.007Z,99.90
2023-05-24T10:02:10.328Z,99.90
2023-05-24T10:04:41.660Z,99.90
2023-05-24T10:07:12.745Z,99.90
2023-05-24T10:09:45.965Z,99.90
2023-05-24T10:12:16.962Z,99.90
2023-05-24T10:14:48.954Z,99.90
2023-05-24T10:17:19.906Z,99.90
2023-05-24T10:19:52.298Z,99.90
2023-05-24T10:22:26.225Z,99.90
2023-05-24T10:25:00.156Z,99.90
2023-05-24T10:27:33.224Z,99.90
2023-05-24T10:30:12.953Z,99.90
2023-05-24T10:32:47.685Z,99.90
2023-05-24T10:35:20.397Z,99.90
2023-05-24T10:37:52.431Z,99.90
2023-05-24T10:40:27.530Z,99.90
2023-05-24T10:42:58.876Z,99.90
2023-05-24T10:45:35.644Z,99.90
2023-05-24T10:48:16.011Z,99.90
2023-05-24T10:50:47.209Z,99.90
2023-05-24T10:53:22.577Z,99.90
2023-05-24T10:56:01.380Z,99.90
2023-05-24T10:58:37.993Z,99.90
2023-05-24T11:01:34.977Z,99.90
2023-05-24T11:04:17.331Z,99.90
2023-05-24T11:07:03.867Z,99.90
2023-05-24T11:09:35.174Z,99.90
2023-05-24T11:12:09.658Z,99.90
2023-05-24T11:14:40.850Z,99.90
2023-05-24T11:17:11.780Z,99.60
2023-05-24T11:19:54.972Z,99.60
2023-05-24T11:22:27.058Z,98.90
2023-05-24T11:25:03.414Z,98.20
2023-05-24T11:27:35.393Z,98.10
2023-05-24T11:30:08.567Z,97.00
2023-05-24T11:32:42.622Z,95.70
2023-05-24T11:35:14.363Z,95.90
2023-05-24T11:37:46.656Z,96.50
2023-05-24T11:40:18.489Z,97.10
2023-05-24T11:42:50.618Z,96.20
2023-05-24T11:45:21.916Z,95.90
2023-05-24T11:47:56.143Z,95.90
2023-05-24T11:50:28.837Z,96.30
2023-05-24T11:53:03.973Z,96.40
2023-05-24T11:55:34.987Z,95.80
2023-05-24T11:58:12.231Z,93.90
2023-05-24T12:00:44.166Z,94.20
2023-05-24T12:03:15.874Z,93.80
2023-05-24T12:05:47.132Z,96.10
2023-05-24T12:08:18.280Z,93.90
2023-05-24T12:10:50.809Z,95.80
2023-05-24T12:13:24.208Z,94.30
2023-05-24T12:15:56.870Z,93.30
2023-05-24T12:18:28.938Z,94.10
2023-05-24T12:21:00.865Z,92.70
2023-05-24T12:23:32.815Z,92.70
2023-05-24T12:26:04.574Z,92.00
2023-05-24T12:28:38.903Z,92.40
2023-05-24T12:31:10.229Z,92.40
2023-05-24T12:33:41.169Z,91.60
2023-05-24T12:36:12.837Z,91.80
2023-05-24T12:38:43.846Z,91.20
2023-05-24T12:41:16.095Z,91.10
2023-05-24T12:43:47.090Z,91.20
2023-05-24T12:46:18.191Z,91.50
2023-05-24T12:48:49.799Z,90.90
2023-05-24T12:51:20.814Z,90.00
2023-05-24T12:53:51.769Z,89.20
2023-05-24T12:56:25.043Z,89.70
2023-05-24T12:58:55.974Z,87.60
2023-05-24T13:01:27.225Z,85.70
2023-05-24T13:03:58.924Z,89.10
2023-05-24T13:06:30.014Z,84.50
2023-05-24T13:09:01.871Z,84.80
2023-05-24T13:11:33.212Z,86.40
2023-05-24T13:14:04.258Z,85.70
2023-05-24T13:16:35.678Z,84.60
2023-05-24T13:19:06.792Z,90.70
2023-05-24T13:21:38.207Z,88.70
2023-05-24T13:24:09.372Z,87.60
2023-05-24T13:26:40.672Z,88.10
2023-05-24T13:31:45.797Z,82.90
2023-05-24T13:34:17.740Z,85.70
2023-05-24T13:36:48.718Z,85.00
2023-05-24T13:39:21.247Z,86.70
2023-05-24T13:41:52.769Z,82.80
2023-05-24T13:44:23.763Z,82.10
2023-05-24T13:46:56.500Z,80.80
2023-05-24T13:49:27.810Z,80.20
2023-05-24T13:51:58.842Z,85.20
2023-05-24T13:54:29.844Z,85.20
2023-05-24T13:57:02.620Z,82.40
2023-05-24T13:59:34.366Z,83.60
2023-05-24T14:02:05.469Z,82.70
2023-05-24T14:04:36.586Z,81.60
2023-05-24T14:07:08.608Z,81.30
2023-05-24T14:09:39.531Z,78.60
2023-05-24T14:12:10.607Z,80.10
2023-05-24T14:17:15.834Z,80.90
2023-05-24T14:19:46.811Z,81.60
2023-05-24T14:22:18.002Z,81.10
2023-05-24T14:24:48.940Z,80.20
2023-05-24T14:27:19.936Z,80.40
2023-05-24T14:29:50.894Z,78.60
2023-05-24T14:32:21.885Z,78.90
2023-05-24T14:34:54.047Z,77.10
2023-05-24T14:37:25.837Z,79.00
2023-05-24T14:39:56.770Z,80.00
2023-05-24T14:42:27.718Z,78.00
2023-05-24T14:44:58.720Z,78.90
2023-05-24T14:47:29.709Z,80.60
2023-05-24T14:50:00.716Z,82.10
2023-05-24T14:52:32.774Z,80.80
2023-05-24T14:55:05.147Z,79.50
2023-05-24T14:57:36.532Z,81.20
2023-05-24T15:00:09.024Z,81.50
2023-05-24T15:02:40.115Z,81.70
2023-05-24T15:05:11.126Z,80.40
2023-05-24T15:07:42.041Z,80.60
2023-05-24T15:10:13.030Z,78.30
2023-05-24T15:12:44.629Z,78.80
2023-05-24T15:15:15.790Z,76.90
2023-05-24T15:17:47.395Z,75.10
2023-05-24T15:20:19.713Z,76.00
2023-05-24T15:22:51.102Z,77.00
2023-05-24T15:25:22.575Z,77.30
2023-05-24T15:27:53.602Z,76.00
2023-05-24T15:30:24.711Z,75.10
2023-05-24T15:32:55.965Z,75.80
2023-05-24T15:35:27.256Z,76.70
2023-05-24T15:37:58.263Z,76.50
2023-05-24T15:40:29.296Z,77.00
2023-05-24T15:43:00.232Z,76.40
2023-05-24T15:45:31.182Z,77.00
2023-05-24T15:48:05.921Z,77.70
2023-05-24T15:53:15.430Z,78.90
2023-05-24T15:55:47.187Z,77.90
2023-05-24T15:58:18.480Z,77.20
2023-05-24T16:00:51.034Z,76.00
2023-05-24T16:03:22.203Z,77.10
2023-05-24T16:05:53.392Z,77.90
2023-05-24T16:08:27.773Z,79.00
2023-05-24T16:10:59.095Z,79.70
2023-05-24T16:13:30.080Z,78.80
2023-05-24T16:16:01.393Z,79.60
2023-05-24T16:18:34.660Z,78.50
2023-05-24T16:21:05.737Z,75.40
2023-05-24T16:23:36.689Z,77.60
2023-05-24T16:26:07.657Z,77.70
2023-05-24T16:28:38.587Z,78.60
2023-05-24T16:31:09.565Z,79.20
2023-05-24T16:33:40.767Z,80.10
2023-05-24T16:36:11.856Z,80.20
2023-05-24T16:38:43.122Z,80.30
2023-05-24T16:41:14.159Z,80.40
2023-05-24T16:43:45.128Z,80.70
2023-05-24T16:46:16.185Z,81.40
2023-05-24T16:48:47.324Z,81.10
2023-05-24T16:51:18.288Z,80.90
2023-05-24T16:53:49.236Z,79.70
2023-05-24T16:56:20.406Z,79.50
2023-05-24T16:58:51.403Z,79.80
2023-05-24T17:01:22.890Z,78.10
2023-05-24T17:03:53.967Z,77.90
2023-05-24T17:06:25.120Z,77.30
2023-05-24T17:08:56.093Z,76.90
2023-05-24T17:11:27.033Z,77.10
2023-05-24T17:13:57.950Z,76.60
2023-05-24T17:16:29.834Z,76.70
2023-05-24T17:19:01.310Z,76.80
2023-05-24T17:21:32.273Z,77.40
2023-05-24T17:24:03.441Z,77.50
2023-05-24T17:26:34.669Z,77.60
2023-05-24T17:29:05.686Z,78.20
2023-05-24T17:31:37.458Z,78.90
2023-05-24T17:34:08.525Z,79.20
2023-05-24T17:36:39.512Z,80.10
2023-05-24T17:39:10.629Z,80.20
2023-05-24T17:41:41.592Z,90.00
2023-05-24T17:44:12.872Z,88.40
2023-05-24T17:46:43.960Z,82.00
2023-05-24T17:49:15.271Z,81.80
2023-05-24T17:51:46.298Z,81.70
2023-05-24T17:54:17.298Z,80.70
2023-05-24T17:56:48.567Z,79.80
2023-05-24T17:59:19.573Z,78.80
2023-05-24T18:01:50.519Z,79.30
2023-05-24T18:04:21.550Z,79.00
2023-05-24T18:06:52.465Z,79.30
2023-05-24T18:09:23.482Z,79.60
2023-05-24T18:11:54.442Z,79.20
2023-05-24T18:14:25.517Z,76.60
2023-05-24T18:16:58.677Z,76.70
2023-05-24T18:19:30.099Z,76.30
2023-05-24T18:22:01.415Z,75.40
2023-05-24T18:24:32.464Z,75.50
2023-05-24T18:27:04.159Z,75.70
2023-05-24T18:29:36.542Z,76.00
2023-05-24T18:32:07.660Z,76.80
2023-05-24T18:34:38.650Z,76.80
2023-05-24T18:37:09.591Z,76.50
2023-05-24T18:39:40.533Z,78.40
2023-05-24T18:42:12.706Z,78.40
2023-05-24T18:44:43.642Z,79.80
2023-05-24T18:47:14.683Z,80.60
2023-05-24T18:49:46.135Z,81.40
2023-05-24T18:52:18.652Z,79.00
2023-05-24T18:54:49.602Z,79.80
2023-05-24T18:57:21.021Z,80.30
2023-05-24T18:59:52.974Z,79.20
2023-05-24T19:02:23.988Z,80.30
2023-05-24T19:04:55.014Z,79.70
2023-05-24T19:07:26.241Z,80.70
2023-05-24T19:09:57.296Z,80.80
2023-05-24T19:12:28.347Z,80.50
2023-05-24T19:14:59.924Z,81.50
2023-05-24T19:17:30.968Z,81.30
2023-05-24T19:20:02.683Z,81.60
2023-05-24T19:22:33.826Z,82.30
2023-05-24T19:25:05.389Z,84.00
2023-05-24T19:27:39.837Z,82.90
2023-05-24T19:30:16.064Z,82.70
2023-05-24T19:32:47.122Z,84.10
2023-05-24T19:35:18.133Z,84.70
2023-05-24T19:37:53.417Z,84.50
2023-05-24T19:40:26.152Z,84.40
2023-05-24T19:42:57.150Z,86.00
2023-05-24T19:45:28.141Z,86.80
2023-05-24T19:47:59.210Z,87.50
2023-05-24T19:50:31.421Z,86.30
2023-05-24T19:53:02.586Z,85.10
2023-05-24T19:55:33.537Z,84.30
2023-05-24T19:58:04.505Z,86.00
2023-05-24T20:00:36.463Z,88.20
2023-05-24T20:03:07.543Z,89.30
2023-05-24T20:05:39.340Z,88.10
2023-05-24T20:08:10.376Z,89.90
2023-05-24T20:10:41.603Z,90.40
2023-05-24T20:13:12.660Z,89.70
2023-05-24T20:15:44.021Z,88.40
2023-05-24T20:18:15.309Z,86.60
2023-05-24T20:20:46.283Z,86.40
2023-05-24T20:23:17.334Z,86.20
2023-05-24T20:25:48.272Z,85.00
2023-05-24T20:28:29.477Z,85.60
2023-05-24T20:31:01.997Z,87.30
2023-05-24T20:33:37.915Z,88.40
2023-05-24T20:36:09.386Z,89.20
2023-05-24T20:38:40.627Z,88.30
2023-05-24T20:41:12.178Z,88.70
2023-05-24T20:43:43.243Z,87.90
2023-05-24T20:46:14.736Z,89.30
2023-05-24T20:48:48.278Z,89.50
2023-05-24T20:51:19.500Z,89.00
2023-05-24T20:53:53.024Z,88.90
2023-05-24T20:56:24.183Z,90.10
2023-05-24T20:58:56.638Z,90.40
2023-05-24T21:01:27.740Z,90.60
2023-05-24T21:03:58.794Z,90.60
2023-05-24T21:06:31.946Z,91.50
2023-05-24T21:09:04.375Z,91.50
2023-05-24T21:11:35.496Z,91.50
2023-05-24T21:14:06.486Z,92.00
2023-05-24T21:16:37.388Z,92.00
2023-05-24T21:19:08.429Z,92.60
2023-05-24T21:21:39.371Z,93.00
2023-05-24T21:24:10.368Z,93.40
2023-05-24T21:26:41.301Z,93.80
2023-05-24T21:29:13.214Z,93.50
2023-05-24T21:31:44.206Z,94.20
2023-05-24T21:34:15.267Z,94.70
2023-05-24T21:36:46.158Z,94.60
2023-05-24T21:39:17.198Z,95.20
2023-05-24T21:41:48.287Z,95.60
2023-05-24T21:44:19.327Z,95.90
2023-05-24T21:46:50.393Z,96.00
2023-05-24T21:49:21.504Z,96.00
2023-05-24T21:51:52.479Z,95.90
2023-05-24T21:54:23.423Z,96.00
2023-05-24T21:56:54.415Z,96.10
2023-05-24T21:59:25.410Z,95.50
2023-05-24T22:01:56.490Z,95.30
2023-05-24T22:04:27.553Z,95.60
2023-05-24T22:06:58.492Z,95.90
2023-05-24T22:09:29.476Z,95.90
2023-05-24T22:12:00.798Z,96.10
2023-05-24T22:14:31.856Z,96.40
2023-05-24T22:17:02.776Z,96.70
2023-05-24T22:22:09.916Z,96.40
2023-05-24T22:24:41.047Z,96.50
2023-05-24T22:27:13.836Z,96.30
2023-05-24T22:29:44.994Z,96.10
2023-05-24T22:32:16.114Z,96.10
2023-05-24T22:34:47.269Z,95.80
2023-05-24T22:37:18.204Z,95.80
2023-05-24T22:39:49.164Z,95.60
2023-05-24T22:42:20.183Z,95.50
2023-05-24T22:44:51.249Z,95.30
2023-05-24T22:47:24.001Z,95.30
2023-05-24T22:49:54.958Z,95.10
2023-05-24T22:52:26.578Z,95.10
2023-05-24T22:54:57.621Z,95.40
2023-05-24T22:57:28.762Z,95.40
2023-05-24T22:59:59.644Z,95.50
2023-05-24T23:02:30.604Z,95.00
2023-05-24T23:05:02.988Z,95.00
2023-05-24T23:07:33.961Z,94.80
2023-05-24T23:10:05.375Z,94.90
2023-05-24T23:12:36.468Z,95.10
2023-05-24T23:15:09.654Z,95.30
2023-05-24T23:17:40.700Z,95.30
2023-05-24T23:20:14.386Z,95.40
2023-05-24T23:22:46.800Z,94.90
2023-05-24T23:25:17.739Z,95.20
2023-05-24T23:27:48.623Z,95.30
2023-05-24T23:30:19.611Z,95.40
2023-05-24T23:32:50.554Z,95.40
2023-05-24T23:35:21.525Z,95.80
2023-05-24T23:37:53.799Z,95.90
2023-05-24T23:40:27.219Z,96.10
2023-05-24T23:42:58.118Z,96.10
2023-05-24T23:45:29.047Z,96.00
2023-05-24T23:48:00.252Z,96.10
2023-05-24T23:50:37.340Z,96.00
2023-05-24T23:53:14.008Z,96.00
2023-05-24T23:55:45.194Z,96.10
2023-05-24T23:58:16.446Z,96.10
